createdAt,value
2017-10-09T00:02:11.214Z,1.80
2017-10-09T00:04:37.929Z,2.23
2017-10-09T00:07:04.626Z,1.60
2017-10-09T00:09:31.328Z,1.57
2017-10-09T00:11:58.065Z,1.40
2017-10-09T00:14:24.751Z,1.63
2017-10-09T00:16:51.477Z,1.77
2017-10-09T00:19:18.238Z,1.47
2017-10-09T00:21:44.938Z,1.37
2017-10-09T00:24:11.674Z,2.03
2017-10-09T00:26:38.414Z,1.80
2017-10-09T00:29:05.156Z,1.73
2017-10-09T00:31:31.873Z,1.73
2017-10-09T00:33:58.658Z,1.60
2017-10-09T00:36:25.353Z,1.60
2017-10-09T00:38:52.043Z,1.70
2017-10-09T00:41:18.771Z,1.50
2017-10-09T00:43:45.518Z,1.63
2017-10-09T00:46:12.247Z,1.67
2017-10-09T00:48:38.995Z,1.33
2017-10-09T00:51:05.705Z,1.77
2017-10-09T00:53:32.394Z,1.70
2017-10-09T00:55:59.131Z,1.43
2017-10-09T00:58:25.856Z,1.70
2017-10-09T01:00:52.551Z,1.40
2017-10-09T01:03:19.269Z,1.90
2017-10-09T01:05:45.983Z,1.63
2017-10-09T01:08:12.695Z,1.90
2017-10-09T01:10:39.414Z,1.60
2017-10-09T01:13:06.126Z,1.33
2017-10-09T01:15:32.859Z,2.33
2017-10-09T01:17:59.591Z,1.90
2017-10-09T01:20:26.287Z,1.77
2017-10-09T01:22:52.989Z,1.90
2017-10-09T01:25:19.715Z,1.70
2017-10-09T01:27:46.420Z,1.77
2017-10-09T01:30:13.111Z,1.77
2017-10-09T01:32:39.863Z,1.87
2017-10-09T01:35:06.588Z,1.73
2017-10-09T01:37:33.318Z,1.80
2017-10-09T01:40:00.037Z,1.67
2017-10-09T01:42:26.753Z,1.83
2017-10-09T01:44:53.439Z,2.00
2017-10-09T01:47:20.188Z,1.70
2017-10-09T01:49:46.875Z,1.63
2017-10-09T01:52:13.572Z,1.53
2017-10-09T01:54:40.293Z,1.53
2017-10-09T01:57:06.986Z,1.53
2017-10-09T01:59:33.678Z,2.00
2017-10-09T02:02:00.451Z,1.60
2017-10-09T02:04:27.144Z,1.63
2017-10-09T02:06:53.830Z,1.60
2017-10-09T02:09:20.536Z,1.83
2017-10-09T02:11:47.222Z,1.80
2017-10-09T02:14:13.922Z,1.70
2017-10-09T02:16:40.673Z,1.70
2017-10-09T02:19:07.403Z,1.80
2017-10-09T02:21:34.096Z,1.33
2017-10-09T02:24:00.852Z,1.90
2017-10-09T02:26:27.582Z,1.83
2017-10-09T02:28:54.274Z,1.90
2017-10-09T02:31:20.975Z,1.90
2017-10-09T02:33:47.666Z,1.97
2017-10-09T02:36:14.385Z,1.80
2017-10-09T02:38:41.133Z,1.90
2017-10-09T02:41:07.840Z,1.87
2017-10-09T02:43:34.539Z,2.20
2017-10-09T02:46:01.298Z,2.10
2017-10-09T02:48:28.019Z,2.00
2017-10-09T02:50:54.715Z,2.33
2017-10-09T02:53:21.425Z,2.13
2017-10-09T02:55:48.117Z,2.03
2017-10-09T02:58:14.818Z,1.97
2017-10-09T03:00:41.566Z,1.93
2017-10-09T03:03:08.254Z,1.90
2017-10-09T03:05:34.986Z,2.20
2017-10-09T03:08:01.698Z,2.03
2017-10-09T03:10:28.397Z,2.07
2017-10-09T03:12:55.086Z,2.20
2017-10-09T03:15:21.819Z,2.10
2017-10-09T03:17:48.521Z,2.03
2017-10-09T03:20:15.253Z,1.70
2017-10-09T03:23:01.595Z,1.90
2017-10-09T03:25:31.094Z,1.90
2017-10-09T03:28:04.344Z,2.30
2017-10-09T03:30:31.059Z,2.10
2017-10-09T03:32:57.797Z,2.33
2017-10-09T03:35:24.548Z,2.20
2017-10-09T03:37:51.266Z,2.30
2017-10-09T03:40:17.957Z,2.03
2017-10-09T03:42:44.739Z,2.30
2017-10-09T03:45:11.475Z,2.00
2017-10-09T03:47:38.173Z,2.33
2017-10-09T03:50:04.907Z,2.17
2017-10-09T03:52:31.600Z,2.00
2017-10-09T03:54:58.505Z,1.40
2017-10-09T03:57:25.231Z,1.90
2017-10-09T03:59:51.924Z,1.70
2017-10-09T04:02:18.630Z,1.90
2017-10-09T04:04:45.565Z,1.77
2017-10-09T04:07:12.303Z,1.67
2017-10-09T04:09:39.000Z,1.80
2017-10-09T04:12:05.723Z,2.13
2017-10-09T04:14:32.432Z,2.57
2017-10-09T04:16:59.175Z,2.70
2017-10-09T04:19:25.888Z,2.87
2017-10-09T04:21:52.642Z,2.10
2017-10-09T04:24:19.361Z,1.77
2017-10-09T04:26:46.116Z,1.90
2017-10-09T04:29:12.841Z,2.10
2017-10-09T04:31:39.564Z,1.90
2017-10-09T04:34:06.325Z,2.30
2017-10-09T04:36:33.046Z,2.23
2017-10-09T04:38:59.803Z,2.87
2017-10-09T04:41:26.519Z,2.30
2017-10-09T04:43:53.211Z,2.73
2017-10-09T04:46:19.921Z,2.30
2017-10-09T04:48:46.639Z,2.20
2017-10-09T04:51:13.354Z,2.00
2017-10-09T04:53:40.069Z,2.30
2017-10-09T04:56:06.799Z,1.83
2017-10-09T04:58:33.488Z,2.33
2017-10-09T05:01:00.175Z,2.83
2017-10-09T05:03:26.931Z,2.40
2017-10-09T05:05:53.641Z,3.20
2017-10-09T05:08:20.340Z,3.03
2017-10-09T05:10:47.066Z,2.87
2017-10-09T05:13:13.758Z,2.73
2017-10-09T05:15:40.466Z,3.80
2017-10-09T05:18:07.213Z,6.07
2017-10-09T05:20:33.985Z,5.60
2017-10-09T05:23:00.691Z,3.53
2017-10-09T05:25:27.418Z,2.90
2017-10-09T05:27:54.113Z,2.80
2017-10-09T05:30:24.943Z,2.43
2017-10-09T05:32:51.700Z,2.20
2017-10-09T05:35:21.214Z,2.10
2017-10-09T05:37:47.917Z,2.43
2017-10-09T05:40:14.643Z,2.40
2017-10-09T05:42:41.335Z,3.50
2017-10-09T05:45:08.034Z,2.70
2017-10-09T05:47:34.763Z,2.37
2017-10-09T05:50:01.460Z,2.10
2017-10-09T05:52:28.169Z,2.30
2017-10-09T05:54:54.901Z,2.20
2017-10-09T05:57:21.610Z,2.70
2017-10-09T05:59:48.310Z,2.40
2017-10-09T06:02:15.043Z,1.60
2017-10-09T06:04:41.739Z,1.93
2017-10-09T06:07:08.490Z,1.80
2017-10-09T06:09:35.275Z,1.40
2017-10-09T06:12:01.992Z,1.70
2017-10-09T06:14:28.714Z,1.80
2017-10-09T06:16:55.467Z,1.70
2017-10-09T06:19:22.165Z,1.53
2017-10-09T06:21:48.882Z,1.57
2017-10-09T06:24:15.643Z,2.07
2017-10-09T06:26:42.474Z,2.00
2017-10-09T06:29:09.824Z,2.10
2017-10-09T06:31:36.716Z,1.87
2017-10-09T06:34:03.459Z,2.33
2017-10-09T06:36:30.266Z,1.90
2017-10-09T06:38:57.030Z,2.00
2017-10-09T06:41:27.769Z,1.93
2017-10-09T06:43:54.479Z,2.60
2017-10-09T06:46:21.244Z,1.90
2017-10-09T06:48:47.960Z,2.10
2017-10-09T06:51:18.069Z,1.73
2017-10-09T06:53:45.932Z,2.27
2017-10-09T06:56:17.386Z,1.93
2017-10-09T06:58:44.212Z,1.70
2017-10-09T07:01:15.271Z,1.47
2017-10-09T07:03:42.751Z,1.40
2017-10-09T07:06:09.761Z,1.80
2017-10-09T07:08:36.542Z,1.50
2017-10-09T07:11:07.355Z,1.70
2017-10-09T07:13:34.080Z,1.20
2017-10-09T07:16:00.918Z,1.90
2017-10-09T07:18:32.632Z,2.30
2017-10-09T07:20:59.794Z,1.60
2017-10-09T07:23:26.753Z,1.63
2017-10-09T07:25:54.345Z,1.80
2017-10-09T07:28:31.196Z,2.10
2017-10-09T07:30:59.380Z,1.97
2017-10-09T07:33:31.517Z,2.10
2017-10-09T07:35:59.802Z,2.40
2017-10-09T07:38:43.520Z,2.40
2017-10-09T07:41:21.209Z,2.27
2017-10-09T07:43:48.120Z,1.93
2017-10-09T07:46:36.173Z,2.30
2017-10-09T07:49:16.378Z,1.80
2017-10-09T07:52:15.299Z,2.20
2017-10-09T07:54:52.184Z,2.40
2017-10-09T08:00:23.348Z,3.20
2017-10-09T08:03:08.236Z,2.83
2017-10-09T08:21:10.319Z,2.90
2017-10-09T08:26:39.498Z,3.90
2017-10-09T08:32:08.501Z,3.63
2017-10-09T08:34:38.544Z,1.90
2017-10-09T08:37:32.518Z,2.47
2017-10-09T08:40:21.577Z,3.07
2017-10-09T08:45:44.828Z,3.13
2017-10-09T08:54:23.652Z,3.23
2017-10-09T08:57:06.871Z,2.77
2017-10-09T09:10:41.311Z,3.03
2017-10-09T09:13:33.244Z,2.77
2017-10-09T09:16:06.052Z,2.97
2017-10-09T09:24:55.788Z,3.67
2017-10-09T09:42:20.759Z,3.70
2017-10-09T09:47:34.655Z,3.73
2017-10-09T09:56:41.862Z,4.60
2017-10-09T10:02:04.095Z,4.77
2017-10-09T10:04:45.577Z,3.57
2017-10-09T10:13:06.376Z,4.40
2017-10-09T10:15:42.366Z,3.93
2017-10-09T10:18:12.315Z,4.83
2017-10-09T10:20:39.014Z,4.40
2017-10-09T10:23:05.714Z,3.97
2017-10-09T10:25:32.426Z,4.20
2017-10-09T10:27:59.171Z,3.90
2017-10-09T10:30:25.868Z,2.77
2017-10-09T10:32:52.614Z,4.03
2017-10-09T10:35:19.351Z,3.13
2017-10-09T10:37:46.071Z,3.30
2017-10-09T10:40:12.834Z,3.80
2017-10-09T10:42:39.551Z,3.00
2017-10-09T10:45:06.279Z,3.27
2017-10-09T10:47:33.002Z,2.83
2017-10-09T10:49:59.725Z,3.53
2017-10-09T10:52:26.444Z,3.90
2017-10-09T10:54:53.187Z,3.23
2017-10-09T10:57:19.893Z,3.77
2017-10-09T10:59:46.594Z,3.43
2017-10-09T11:02:13.324Z,3.40
2017-10-09T11:04:40.010Z,3.67
2017-10-09T11:07:06.713Z,3.20
2017-10-09T11:09:33.454Z,2.90
2017-10-09T11:12:00.154Z,2.60
2017-10-09T11:14:26.882Z,3.30
2017-10-09T11:16:53.620Z,2.97
2017-10-09T11:19:20.312Z,3.03
2017-10-09T11:21:47.005Z,2.80
2017-10-09T11:24:13.722Z,4.17
2017-10-09T11:26:40.433Z,3.37
2017-10-09T11:29:07.128Z,3.07
2017-10-09T11:31:33.881Z,3.43
2017-10-09T11:34:00.583Z,3.93
2017-10-09T11:36:28.801Z,4.37
2017-10-09T11:38:55.533Z,3.43
2017-10-09T11:41:22.220Z,3.07
2017-10-09T11:43:48.940Z,3.27
2017-10-09T11:46:15.656Z,3.97
2017-10-09T11:48:42.361Z,2.67
2017-10-09T11:51:09.536Z,2.87
2017-10-09T11:53:36.435Z,3.20
2017-10-09T11:56:03.193Z,3.20
2017-10-09T11:58:29.901Z,2.97
2017-10-09T12:00:56.672Z,3.50
2017-10-09T12:03:23.361Z,2.80
2017-10-09T12:05:50.059Z,3.40
2017-10-09T12:08:16.769Z,4.03
2017-10-09T12:10:43.463Z,3.20
2017-10-09T12:13:10.251Z,3.30
2017-10-09T12:15:36.974Z,3.13
2017-10-09T12:18:03.667Z,2.90
2017-10-09T12:20:30.507Z,3.07
2017-10-09T12:22:57.223Z,3.13
2017-10-09T12:25:23.923Z,3.23
2017-10-09T12:27:50.610Z,2.67
2017-10-09T12:30:17.380Z,3.03
2017-10-09T12:32:44.108Z,3.10
2017-10-09T12:35:10.801Z,3.40
2017-10-09T12:37:37.545Z,3.20
2017-10-09T12:40:04.240Z,3.43
2017-10-09T12:42:30.932Z,3.63
2017-10-09T12:44:57.661Z,3.43
2017-10-09T12:47:24.364Z,2.87
2017-10-09T12:49:51.055Z,2.90
2017-10-09T12:52:17.796Z,3.27
2017-10-09T12:54:44.490Z,2.90
2017-10-09T12:57:11.182Z,3.10
2017-10-09T12:59:37.894Z,3.47
2017-10-09T13:02:04.589Z,3.40
2017-10-09T13:04:31.291Z,3.10
2017-10-09T13:06:58.003Z,3.80
2017-10-09T13:09:24.703Z,3.60
2017-10-09T13:11:51.417Z,3.43
2017-10-09T13:14:18.139Z,3.03
2017-10-09T13:16:44.838Z,3.03
2017-10-09T13:19:11.537Z,3.50
2017-10-09T13:21:38.278Z,3.03
2017-10-09T13:24:04.976Z,3.23
2017-10-09T13:26:31.681Z,3.60
2017-10-09T13:28:58.394Z,3.30
2017-10-09T13:31:25.090Z,3.83
2017-10-09T13:33:51.787Z,3.00
2017-10-09T13:36:18.511Z,3.43
2017-10-09T13:38:45.211Z,3.40
2017-10-09T13:41:11.947Z,3.10
2017-10-09T13:43:38.673Z,3.10
2017-10-09T13:46:05.399Z,3.50
2017-10-09T13:48:32.095Z,3.03
2017-10-09T13:50:58.837Z,3.57
2017-10-09T13:53:25.522Z,3.50
2017-10-09T13:55:52.223Z,3.70
2017-10-09T13:58:18.997Z,3.60
2017-10-09T14:00:45.720Z,3.27
2017-10-09T14:03:12.442Z,3.10
2017-10-09T14:05:39.152Z,3.27
2017-10-09T14:08:05.867Z,3.73
2017-10-09T14:10:32.559Z,3.53
2017-10-09T14:12:59.277Z,3.13
2017-10-09T14:15:25.978Z,3.90
2017-10-09T14:17:52.788Z,3.00
2017-10-09T14:20:19.530Z,3.70
2017-10-09T14:22:46.234Z,3.67
2017-10-09T14:25:12.921Z,4.30
2017-10-09T14:27:39.674Z,3.97
2017-10-09T14:30:06.365Z,3.80
2017-10-09T14:39:53.163Z,3.73
2017-10-09T14:42:19.881Z,4.63
2017-10-09T14:44:46.573Z,3.80
2017-10-09T14:47:13.266Z,4.13
2017-10-09T14:49:39.992Z,3.53
2017-10-09T14:52:06.691Z,4.13
2017-10-09T14:54:33.390Z,3.90
2017-10-09T14:57:00.129Z,3.50
2017-10-09T14:59:26.829Z,3.80
2017-10-09T15:01:53.546Z,4.07
2017-10-09T15:04:20.310Z,3.17
2017-10-09T15:06:47.009Z,4.30
2017-10-09T15:09:13.721Z,4.40
2017-10-09T15:11:40.441Z,4.10
2017-10-09T15:14:07.149Z,3.07
2017-10-09T15:16:33.930Z,3.70
2017-10-09T15:19:00.663Z,3.30
2017-10-09T15:21:27.370Z,3.90
2017-10-09T15:23:54.109Z,3.67
2017-10-09T15:26:20.846Z,3.57
2017-10-09T15:28:47.563Z,3.63
2017-10-09T15:31:14.306Z,3.40
2017-10-09T15:33:41.077Z,3.30
2017-10-09T15:36:07.838Z,3.47
2017-10-09T15:38:34.566Z,4.33
2017-10-09T15:41:01.323Z,3.77
2017-10-09T15:43:28.020Z,3.17
2017-10-09T15:45:54.711Z,3.50
2017-10-09T15:48:21.430Z,3.20
2017-10-09T15:50:48.206Z,3.20
2017-10-09T15:53:14.946Z,3.07
2017-10-09T15:55:41.792Z,3.70
2017-10-09T15:58:08.445Z,4.07
2017-10-09T16:00:35.169Z,3.77
2017-10-09T16:03:01.910Z,4.50
2017-10-09T16:05:28.685Z,3.63
2017-10-09T16:07:55.375Z,3.93
2017-10-09T16:10:22.186Z,3.53
2017-10-09T16:12:48.920Z,3.80
2017-10-09T16:15:15.615Z,3.90
2017-10-09T16:17:42.332Z,4.13
2017-10-09T16:20:09.054Z,3.20
2017-10-09T16:22:35.770Z,3.27
2017-10-09T16:25:02.515Z,3.50
2017-10-09T16:27:29.304Z,3.50
2017-10-09T16:29:56.073Z,3.50
2017-10-09T16:32:22.819Z,3.70
2017-10-09T16:34:49.528Z,3.20
2017-10-09T16:37:16.234Z,3.33
2017-10-09T16:39:43.032Z,3.10
2017-10-09T16:42:09.735Z,3.17
2017-10-09T16:44:36.446Z,2.93
2017-10-09T16:47:03.184Z,3.20
2017-10-09T16:49:29.939Z,4.70
2017-10-09T16:51:56.679Z,4.00
2017-10-09T16:54:23.500Z,3.40
2017-10-09T16:56:50.212Z,3.57
2017-10-09T16:59:16.926Z,3.57
2017-10-09T17:01:43.675Z,3.67
2017-10-09T17:04:10.370Z,3.60
2017-10-09T17:06:37.083Z,6.83
2017-10-09T17:09:03.913Z,6.33
2017-10-09T17:11:30.636Z,3.60
2017-10-09T17:13:57.397Z,3.90
2017-10-09T17:16:24.425Z,3.30
2017-10-09T17:18:51.135Z,3.20
2017-10-09T17:21:17.911Z,4.20
2017-10-09T17:23:44.644Z,3.63
2017-10-09T17:26:11.421Z,3.17
2017-10-09T17:28:38.131Z,4.40
2017-10-09T17:31:04.917Z,4.07
2017-10-09T17:33:31.604Z,3.87
2017-10-09T17:35:58.303Z,3.50
2017-10-09T17:38:25.086Z,3.10
2017-10-09T17:40:51.800Z,2.63
2017-10-09T17:43:18.515Z,2.57
2017-10-09T17:45:45.247Z,3.10
2017-10-09T17:48:12.005Z,3.03
2017-10-09T17:50:38.709Z,3.27
2017-10-09T17:53:05.784Z,3.03
2017-10-09T17:55:32.502Z,2.90
2017-10-09T17:57:59.223Z,3.47
2017-10-09T18:00:26.198Z,3.30
2017-10-09T18:02:52.905Z,3.00
2017-10-09T18:05:19.610Z,3.47
2017-10-09T18:07:46.353Z,2.73
2017-10-09T18:10:13.073Z,2.50
2017-10-09T18:12:39.787Z,2.80
2017-10-09T18:15:06.563Z,2.67
2017-10-09T18:17:33.275Z,3.23
2017-10-09T18:20:00.420Z,3.20
2017-10-09T18:22:27.186Z,3.80
2017-10-09T18:24:53.898Z,3.73
2017-10-09T18:27:20.634Z,4.13
2017-10-09T18:29:47.387Z,4.27
2017-10-09T18:32:14.168Z,3.40
2017-10-09T18:34:40.874Z,3.80
2017-10-09T18:37:07.636Z,4.43
2017-10-09T18:39:34.344Z,3.47
2017-10-09T18:42:01.117Z,4.77
2017-10-09T18:44:28.573Z,3.70
2017-10-09T18:46:55.316Z,3.67
2017-10-09T18:49:22.421Z,3.60
2017-10-09T18:51:49.190Z,4.33
2017-10-09T18:54:15.912Z,3.53
2017-10-09T18:56:42.660Z,3.00
2017-10-09T18:59:09.398Z,3.37
2017-10-09T19:01:36.182Z,3.70
2017-10-09T19:04:02.954Z,3.70
2017-10-09T19:06:29.749Z,3.73
2017-10-09T19:08:56.495Z,3.50
2017-10-09T19:11:23.305Z,2.73
2017-10-09T19:13:50.077Z,2.77
2017-10-09T19:16:16.823Z,2.80
2017-10-09T19:18:43.742Z,2.63
2017-10-09T19:21:10.568Z,2.77
2017-10-09T19:23:37.299Z,3.57
2017-10-09T19:26:04.153Z,3.80
2017-10-09T19:28:30.932Z,3.57
2017-10-09T19:30:57.854Z,3.10
2017-10-09T19:33:24.594Z,2.93
2017-10-09T19:35:52.045Z,4.07
2017-10-09T19:38:18.792Z,3.43
2017-10-09T19:40:45.506Z,4.43
2017-10-09T19:43:12.659Z,4.17
2017-10-09T19:45:39.456Z,3.53
2017-10-09T19:48:06.198Z,2.77
2017-10-09T19:50:32.946Z,3.10
2017-10-09T19:52:59.706Z,3.60
2017-10-09T19:55:26.435Z,4.07
2017-10-09T19:57:53.224Z,3.73
2017-10-09T20:00:19.954Z,4.27
2017-10-09T20:02:47.009Z,4.23
2017-10-09T20:05:13.782Z,4.20
2017-10-09T20:07:40.516Z,4.87
2017-10-09T20:10:07.272Z,3.57
2017-10-09T20:12:34.055Z,4.17
2017-10-09T20:15:01.554Z,4.73
2017-10-09T20:17:28.294Z,4.60
2017-10-09T20:19:55.086Z,4.70
2017-10-09T20:22:22.359Z,3.87
2017-10-09T20:24:49.146Z,5.53
2017-10-09T20:27:15.880Z,4.87
2017-10-09T20:29:42.717Z,4.73
2017-10-09T20:32:09.448Z,5.50
2017-10-09T20:34:36.224Z,5.23
2017-10-09T20:37:03.414Z,5.70
2017-10-09T20:39:30.212Z,5.07
2017-10-09T20:41:56.947Z,5.50
2017-10-09T20:44:23.884Z,5.53
2017-10-09T20:46:50.898Z,5.30
2017-10-09T20:49:17.663Z,7.33
2017-10-09T20:51:44.379Z,5.87
2017-10-09T20:54:11.090Z,6.43
2017-10-09T20:56:37.826Z,7.13
2017-10-09T20:59:04.550Z,6.63
2017-10-09T21:01:31.275Z,6.93
2017-10-09T21:03:58.010Z,6.43
2017-10-09T21:06:24.716Z,6.30
2017-10-09T21:08:51.522Z,5.87
2017-10-09T21:11:18.300Z,6.57
2017-10-09T21:13:45.012Z,5.83
2017-10-09T21:16:11.713Z,6.27
2017-10-09T21:18:38.440Z,6.47
2017-10-09T21:21:05.160Z,6.67
2017-10-09T21:23:31.864Z,7.57
2017-10-09T21:25:58.611Z,7.20
2017-10-09T21:28:25.341Z,8.03
2017-10-09T21:30:52.071Z,7.40
2017-10-09T21:33:18.815Z,7.47
2017-10-09T21:35:45.524Z,7.77
2017-10-09T21:38:12.243Z,7.37
2017-10-09T21:40:38.985Z,6.70
2017-10-09T21:43:05.699Z,6.93
2017-10-09T21:45:32.418Z,6.73
2017-10-09T21:47:59.158Z,6.30
2017-10-09T21:50:25.874Z,5.90
2017-10-09T21:52:52.579Z,6.93
2017-10-09T21:55:19.299Z,5.37
2017-10-09T21:57:46.000Z,6.53
2017-10-09T22:00:12.720Z,6.37
2017-10-09T22:02:39.453Z,6.00
2017-10-09T22:05:06.165Z,7.57
2017-10-09T22:07:32.869Z,6.40
2017-10-09T22:09:59.618Z,6.60
2017-10-09T22:12:26.333Z,6.60
2017-10-09T22:14:53.040Z,5.73
2017-10-09T22:17:19.799Z,5.73
2017-10-09T22:19:46.499Z,6.17
2017-10-09T22:22:13.202Z,5.53
2017-10-09T22:24:39.919Z,6.47
2017-10-09T22:27:06.612Z,5.70
2017-10-09T22:29:33.317Z,6.33
2017-10-09T22:32:00.052Z,5.90
2017-10-09T22:34:26.775Z,5.83
2017-10-09T22:36:53.507Z,6.00
2017-10-09T22:39:20.248Z,5.70
2017-10-09T22:41:46.955Z,5.73
2017-10-09T22:44:13.673Z,5.80
2017-10-09T22:46:40.399Z,6.47
2017-10-09T22:49:07.104Z,5.93
2017-10-09T22:51:33.832Z,6.07
2017-10-09T22:54:00.573Z,6.50
2017-10-09T22:56:27.274Z,5.53
2017-10-09T22:58:53.982Z,4.90
2017-10-09T23:01:20.703Z,5.30
2017-10-09T23:03:47.447Z,5.73
2017-10-09T23:06:14.166Z,4.90
2017-10-09T23:08:40.930Z,5.90
2017-10-09T23:11:07.647Z,5.20
2017-10-09T23:13:34.356Z,4.93
2017-10-09T23:16:01.079Z,5.70
2017-10-09T23:18:27.815Z,6.33
2017-10-09T23:20:54.515Z,5.53
2017-10-09T23:23:21.239Z,6.00
2017-10-09T23:25:47.938Z,6.37
2017-10-09T23:28:14.656Z,6.03
2017-10-09T23:30:41.397Z,6.33
2017-10-09T23:33:08.102Z,6.00
2017-10-09T23:35:34.811Z,6.60
2017-10-09T23:38:01.534Z,6.10
2017-10-09T23:40:28.246Z,6.70
2017-10-09T23:42:54.955Z,5.27
2017-10-09T23:45:21.709Z,5.87
2017-10-09T23:47:48.443Z,6.70
2017-10-09T23:50:15.159Z,6.10
2017-10-09T23:52:41.901Z,5.37
2017-10-09T23:55:08.618Z,6.23
2017-10-09T23:57:35.325Z,6.20
